createdAt,value
2019-04-05T00:01:27.387Z,1.80
2019-04-05T00:03:58.357Z,1.67
2019-04-05T00:06:29.412Z,1.53
2019-04-05T00:09:00.508Z,1.50
2019-04-05T00:11:33.190Z,1.70
2019-04-05T00:14:04.353Z,1.30
2019-04-05T00:16:37.391Z,1.63
2019-04-05T00:19:08.393Z,1.10
2019-04-05T00:21:39.852Z,1.47
2019-04-05T00:24:11.598Z,2.20
2019-04-05T00:26:43.317Z,2.03
2019-04-05T00:29:14.324Z,1.30
2019-04-05T00:31:45.291Z,1.65
2019-04-05T00:34:16.513Z,1.20
2019-04-05T00:36:47.486Z,1.27
2019-04-05T00:39:19.440Z,1.32
2019-04-05T00:41:50.521Z,1.35
2019-04-05T00:44:21.843Z,1.47
2019-04-05T00:46:52.859Z,1.10
2019-04-05T00:49:23.960Z,1.35
2019-04-05T00:51:55.350Z,1.37
2019-04-05T00:54:26.435Z,1.98
2019-04-05T00:56:57.793Z,1.60
2019-04-05T00:59:29.242Z,2.47
2019-04-05T01:02:00.391Z,1.62
2019-04-05T01:04:31.689Z,1.80
2019-04-05T01:07:03.073Z,1.67
2019-04-05T01:09:34.316Z,1.20
2019-04-05T01:12:05.548Z,1.37
2019-04-05T01:14:37.579Z,1.30
2019-04-05T01:17:08.723Z,1.70
2019-04-05T01:19:42.044Z,1.23
2019-04-05T01:22:14.773Z,1.93
2019-04-05T01:24:46.649Z,1.00
2019-04-05T01:27:17.749Z,1.93
2019-04-05T01:29:49.624Z,1.86
2019-04-05T01:32:20.759Z,1.70
2019-04-05T01:34:51.887Z,1.37
2019-04-05T01:37:23.597Z,1.33
2019-04-05T01:39:54.639Z,1.47
2019-04-05T01:42:26.251Z,1.60
2019-04-05T01:44:58.317Z,1.80
2019-04-05T01:47:29.284Z,1.07
2019-04-05T01:50:00.317Z,1.82
2019-04-05T01:52:32.057Z,1.90
2019-04-05T01:55:03.227Z,1.17
2019-04-05T01:57:34.252Z,1.73
2019-04-05T02:00:07.741Z,1.72
2019-04-05T02:02:40.268Z,1.80
2019-04-05T02:05:11.823Z,1.43
2019-04-05T02:07:43.036Z,1.20
2019-04-05T02:10:14.712Z,1.67
2019-04-05T02:12:46.167Z,1.25
2019-04-05T02:15:28.872Z,1.00
2019-04-05T02:18:00.243Z,1.50
2019-04-05T02:20:31.619Z,1.03
2019-04-05T02:23:02.893Z,1.70
2019-04-05T02:25:34.111Z,1.00
2019-04-05T02:28:05.161Z,2.05
2019-04-05T02:30:36.424Z,1.93
2019-04-05T02:33:07.683Z,1.42
2019-04-05T02:35:40.040Z,1.42
2019-04-05T02:38:11.026Z,1.60
2019-04-05T02:40:43.516Z,1.40
2019-04-05T02:43:17.634Z,1.37
2019-04-05T02:45:52.036Z,1.12
2019-04-05T02:48:24.174Z,1.47
2019-04-05T02:50:58.757Z,1.60
2019-04-05T02:53:30.885Z,1.87
2019-04-05T02:56:03.711Z,1.50
2019-04-05T02:58:35.556Z,1.37
2019-04-05T03:01:07.730Z,1.70
2019-04-05T03:03:40.326Z,1.62
2019-04-05T03:06:11.943Z,1.37
2019-04-05T03:08:44.344Z,1.70
2019-04-05T03:11:17.285Z,1.80
2019-04-05T03:13:52.891Z,1.40
2019-04-05T03:16:40.780Z,1.32
2019-04-05T03:19:17.826Z,1.00
2019-04-05T03:21:56.381Z,1.72
2019-04-05T03:24:30.594Z,1.40
2019-04-05T03:27:12.604Z,1.15
2019-04-05T03:29:44.816Z,2.00
2019-04-05T03:32:16.581Z,1.93
2019-04-05T03:34:48.615Z,2.10
2019-04-05T03:37:20.029Z,1.00
2019-04-05T03:39:51.173Z,1.63
2019-04-05T03:42:22.925Z,1.47
2019-04-05T03:44:54.199Z,2.35
2019-04-05T03:47:25.433Z,1.73
2019-04-05T03:49:56.664Z,1.40
2019-04-05T03:52:29.164Z,1.33
2019-04-05T03:55:00.425Z,2.40
2019-04-05T03:57:31.849Z,1.03
2019-04-05T04:00:03.053Z,1.77
2019-04-05T04:02:34.504Z,1.83
2019-04-05T04:05:05.947Z,1.10
2019-04-05T04:07:37.109Z,1.20
2019-04-05T04:10:13.278Z,0.90
2019-04-05T04:12:44.791Z,1.17
2019-04-05T04:15:17.610Z,1.97
2019-04-05T04:17:49.957Z,1.47
2019-04-05T04:20:37.713Z,1.00
2019-04-05T04:23:09.949Z,1.43
2019-04-05T04:25:41.968Z,1.67
2019-04-05T04:28:13.494Z,1.50
2019-04-05T04:30:44.736Z,1.70
2019-04-05T04:33:15.881Z,1.30
2019-04-05T04:35:47.982Z,1.80
2019-04-05T04:38:20.375Z,1.34
2019-04-05T04:40:51.921Z,1.20
2019-04-05T04:43:23.262Z,1.50
2019-04-05T04:45:54.429Z,1.22
2019-04-05T04:48:26.004Z,1.40
2019-04-05T04:50:57.368Z,1.23
2019-04-05T04:53:29.615Z,1.20
2019-04-05T04:56:00.778Z,1.37
2019-04-05T04:58:32.427Z,1.20
2019-04-05T05:01:03.760Z,0.95
2019-04-05T05:03:35.188Z,1.40
2019-04-05T05:06:06.645Z,1.50
2019-04-05T05:08:37.974Z,1.03
2019-04-05T05:11:14.749Z,0.80
2019-04-05T05:13:42.317Z,0.95
2019-04-05T05:16:13.414Z,2.40
2019-04-05T05:18:45.117Z,2.07
2019-04-05T05:21:16.796Z,1.73
2019-04-05T05:23:48.363Z,1.50
2019-04-05T05:26:20.751Z,1.82
2019-04-05T05:28:52.399Z,1.93
2019-04-05T05:31:24.409Z,2.07
2019-04-05T05:33:56.641Z,1.62
2019-04-05T05:36:28.141Z,0.83
2019-04-05T05:38:59.271Z,1.60
2019-04-05T05:41:30.522Z,1.20
2019-04-05T05:44:01.917Z,1.10
2019-04-05T05:46:33.161Z,0.70
2019-04-05T05:49:04.282Z,0.57
2019-04-05T05:51:35.572Z,1.20
2019-04-05T05:54:06.808Z,1.40
2019-04-05T05:56:37.834Z,0.93
2019-04-05T05:59:08.995Z,1.60
2019-04-05T06:01:40.346Z,1.30
2019-04-05T06:04:12.871Z,1.53
2019-04-05T06:06:44.015Z,1.40
2019-04-05T06:09:15.084Z,1.30
2019-04-05T06:11:46.195Z,1.33
2019-04-05T06:14:17.261Z,1.42
2019-04-05T06:16:48.367Z,0.90
2019-04-05T06:19:20.231Z,1.07
2019-04-05T06:21:51.393Z,1.87
2019-04-05T06:24:22.624Z,1.90
2019-04-05T06:26:53.701Z,1.80
2019-04-05T06:29:25.045Z,2.15
2019-04-05T06:31:56.165Z,1.67
2019-04-05T06:34:27.166Z,1.90
2019-04-05T06:36:58.255Z,1.60
2019-04-05T06:39:29.240Z,1.80
2019-04-05T06:42:00.269Z,2.27
2019-04-05T06:44:32.328Z,1.43
2019-04-05T06:47:03.394Z,2.00
2019-04-05T06:49:34.489Z,2.02
2019-04-05T06:52:05.667Z,1.72
2019-04-05T06:54:36.768Z,1.50
2019-04-05T06:57:08.038Z,1.17
2019-04-05T06:59:39.109Z,1.43
2019-04-05T07:02:10.416Z,1.70
2019-04-05T07:04:41.638Z,2.17
2019-04-05T07:07:12.882Z,2.43
2019-04-05T07:09:44.202Z,1.10
2019-04-05T07:12:15.175Z,3.73
2019-04-05T07:14:46.543Z,1.90
2019-04-05T07:17:17.532Z,2.27
2019-04-05T07:19:50.643Z,2.08
2019-04-05T07:22:35.516Z,2.40
2019-04-05T07:24:54.653Z,2.30
2019-04-05T07:27:25.847Z,2.50
2019-04-05T07:29:57.076Z,2.47
2019-04-05T07:32:31.049Z,3.13
2019-04-05T07:35:01.434Z,2.33
2019-04-05T07:37:32.437Z,2.93
2019-04-05T07:40:03.484Z,2.80
2019-04-05T07:42:34.559Z,3.02
2019-04-05T07:45:06.407Z,2.43
2019-04-05T07:47:38.437Z,2.83
2019-04-05T07:50:10.451Z,2.30
2019-04-05T07:52:41.627Z,2.43
2019-04-05T07:55:12.738Z,2.50
2019-04-05T07:57:43.867Z,3.07
2019-04-05T08:00:46.381Z,2.87
2019-04-05T08:03:17.566Z,2.30
2019-04-05T08:05:49.384Z,2.22
2019-04-05T08:08:47.357Z,2.25
2019-04-05T08:11:19.360Z,2.67
2019-04-05T08:13:53.154Z,2.30
2019-04-05T08:16:24.774Z,2.70
2019-04-05T08:18:58.174Z,2.40
2019-04-05T08:21:28.793Z,2.73
2019-04-05T08:24:01.195Z,1.98
2019-04-05T08:26:32.317Z,2.20
2019-04-05T08:29:03.575Z,2.07
2019-04-05T08:31:34.571Z,2.00
2019-04-05T08:34:05.718Z,2.67
2019-04-05T08:36:36.841Z,2.50
2019-04-05T08:39:09.460Z,3.30
2019-04-05T08:41:40.709Z,2.72
2019-04-05T08:44:11.881Z,3.07
2019-04-05T08:46:42.861Z,3.00
2019-04-05T08:49:13.918Z,2.73
2019-04-05T08:51:44.891Z,2.65
2019-04-05T08:54:16.037Z,3.10
2019-04-05T08:56:47.100Z,3.00
2019-04-05T08:59:18.186Z,3.27
2019-04-05T09:01:49.188Z,3.37
2019-04-05T09:04:20.993Z,2.75
2019-04-05T09:06:52.026Z,2.20
2019-04-05T09:09:23.044Z,3.37
2019-04-05T09:11:54.335Z,3.07
2019-04-05T09:14:25.901Z,3.12
2019-04-05T09:16:57.173Z,3.90
2019-04-05T09:19:28.156Z,3.03
2019-04-05T09:21:59.226Z,3.30
2019-04-05T09:24:30.203Z,3.40
2019-04-05T09:27:01.713Z,3.52
2019-04-05T09:29:32.700Z,2.97
2019-04-05T09:32:03.742Z,3.65
2019-04-05T09:34:35.755Z,3.37
2019-04-05T09:37:06.921Z,3.60
2019-04-05T09:39:37.998Z,3.10
2019-04-05T09:42:09.027Z,2.87
2019-04-05T09:44:41.037Z,2.87
2019-04-05T09:47:12.247Z,2.87
2019-04-05T09:49:43.269Z,3.43
2019-04-05T09:52:15.514Z,3.93
2019-04-05T09:54:46.605Z,3.77
2019-04-05T09:57:17.949Z,3.87
2019-04-05T09:59:49.054Z,4.77
2019-04-05T10:02:20.988Z,3.72
2019-04-05T10:04:52.084Z,3.67
2019-04-05T10:07:23.452Z,3.57
2019-04-05T10:09:54.471Z,4.40
2019-04-05T10:12:25.534Z,3.50
2019-04-05T10:14:56.933Z,3.17
2019-04-05T10:17:28.003Z,3.42
2019-04-05T10:19:59.054Z,3.70
2019-04-05T10:22:30.225Z,4.00
2019-04-05T10:25:01.247Z,3.30
2019-04-05T10:27:32.304Z,3.70
2019-04-05T10:30:03.544Z,3.72
2019-04-05T10:32:34.833Z,3.67
2019-04-05T10:35:06.341Z,4.70
2019-04-05T10:37:37.489Z,3.43
2019-04-05T10:40:09.543Z,3.63
2019-04-05T10:42:41.086Z,4.03
2019-04-05T10:45:13.189Z,3.53
2019-04-05T10:47:44.369Z,3.17
2019-04-05T10:50:16.202Z,2.93
2019-04-05T10:52:47.206Z,3.23
2019-04-05T10:55:18.404Z,3.27
2019-04-05T10:57:49.546Z,3.00
2019-04-05T11:00:22.408Z,3.17
2019-04-05T11:02:53.487Z,3.53
2019-04-05T11:05:24.668Z,3.13
2019-04-05T11:07:55.668Z,4.03
2019-04-05T11:10:26.818Z,3.80
2019-04-05T11:12:58.064Z,3.63
2019-04-05T11:15:31.022Z,3.40
2019-04-05T11:18:04.527Z,4.00
2019-04-05T11:20:35.172Z,4.30
2019-04-05T11:23:06.458Z,3.20
2019-04-05T11:25:37.606Z,2.97
2019-04-05T11:28:08.774Z,2.70
2019-04-05T11:30:48.506Z,2.80
2019-04-05T11:33:20.102Z,2.97
2019-04-05T11:35:51.840Z,3.45
2019-04-05T11:38:24.456Z,3.80
2019-04-05T11:40:56.680Z,3.80
2019-04-05T11:43:31.177Z,3.53
2019-04-05T11:46:02.230Z,2.93
2019-04-05T11:48:34.064Z,3.80
2019-04-05T11:51:05.471Z,3.73
2019-04-05T11:53:36.643Z,3.60
2019-04-05T11:56:14.689Z,2.90
2019-04-05T11:58:42.949Z,3.20
2019-04-05T12:01:23.501Z,3.47
2019-04-05T12:03:54.951Z,3.37
2019-04-05T12:06:25.995Z,3.70
2019-04-05T12:08:56.976Z,3.43
2019-04-05T12:11:28.273Z,3.37
2019-04-05T12:13:59.307Z,3.70
2019-04-05T12:16:30.399Z,3.00
2019-04-05T12:19:04.468Z,2.77
2019-04-05T12:21:34.809Z,2.50
2019-04-05T12:24:07.507Z,3.53
2019-04-05T12:26:38.623Z,3.13
2019-04-05T12:29:09.682Z,3.70
2019-04-05T12:31:41.158Z,3.63
2019-04-05T12:34:12.268Z,3.87
2019-04-05T12:36:43.325Z,3.90
2019-04-05T12:39:14.727Z,3.37
2019-04-05T12:41:45.808Z,2.95
2019-04-05T12:44:17.225Z,2.70
2019-04-05T12:46:48.660Z,3.42
2019-04-05T12:49:19.651Z,3.63
2019-04-05T12:51:51.503Z,3.90
2019-04-05T12:54:22.655Z,3.67
2019-04-05T12:56:57.861Z,3.70
2019-04-05T12:59:27.634Z,3.73
2019-04-05T13:01:59.717Z,4.73
2019-04-05T13:04:31.134Z,3.90
2019-04-05T13:07:02.228Z,3.80
2019-04-05T13:09:33.331Z,3.10
2019-04-05T13:12:04.429Z,3.58
2019-04-05T13:14:35.495Z,3.50
2019-04-05T13:17:06.957Z,3.23
2019-04-05T13:19:38.070Z,3.40
2019-04-05T13:22:09.175Z,2.70
2019-04-05T13:24:41.506Z,3.27
2019-04-05T13:27:12.628Z,3.53
2019-04-05T13:29:43.693Z,3.70
2019-04-05T13:32:17.032Z,2.90
2019-04-05T13:34:47.568Z,2.65
2019-04-05T13:37:20.499Z,3.70
2019-04-05T13:39:51.569Z,3.10
2019-04-05T13:42:22.658Z,3.17
2019-04-05T13:44:53.713Z,3.57
2019-04-05T13:47:24.677Z,3.63
2019-04-05T13:49:55.770Z,3.20
2019-04-05T13:52:26.920Z,3.92
2019-04-05T13:54:57.953Z,3.70
2019-04-05T13:57:29.291Z,3.77
2019-04-05T14:00:00.430Z,3.40
2019-04-05T14:02:31.421Z,3.17
2019-04-05T14:05:02.712Z,3.60
2019-04-05T14:07:34.359Z,2.90
2019-04-05T14:10:06.060Z,3.70
2019-04-05T14:12:37.677Z,3.17
2019-04-05T14:15:11.354Z,3.17
2019-04-05T14:17:44.709Z,3.40
2019-04-05T14:20:19.741Z,3.23
2019-04-05T14:22:52.375Z,2.96
2019-04-05T14:25:26.076Z,3.53
2019-04-05T14:27:56.260Z,4.15
2019-04-05T14:30:27.301Z,3.57
2019-04-05T14:32:58.344Z,3.10
2019-04-05T14:35:29.408Z,2.70
2019-04-05T14:38:00.418Z,2.83
2019-04-05T14:40:33.063Z,2.40
2019-04-05T14:43:04.450Z,2.87
2019-04-05T14:45:35.956Z,3.23
2019-04-05T14:48:06.958Z,3.43
2019-04-05T14:50:37.951Z,2.57
2019-04-05T14:53:09.104Z,3.23
2019-04-05T14:55:41.655Z,2.92
2019-04-05T14:58:12.777Z,3.15
2019-04-05T15:00:44.467Z,2.70
2019-04-05T15:03:17.046Z,2.93
2019-04-05T15:05:48.278Z,2.50
2019-04-05T15:08:20.682Z,3.73
2019-04-05T15:10:56.635Z,3.25
2019-04-05T15:13:25.432Z,3.03
2019-04-05T15:15:56.893Z,2.65
2019-04-05T15:18:27.920Z,3.37
2019-04-05T15:20:59.068Z,3.22
2019-04-05T15:23:30.376Z,2.80
2019-04-05T15:26:01.641Z,2.83
2019-04-05T15:28:32.672Z,3.43
2019-04-05T15:31:03.852Z,2.47
2019-04-05T15:33:34.966Z,2.27
2019-04-05T15:36:06.376Z,3.92
2019-04-05T15:38:37.495Z,2.83
2019-04-05T15:41:08.654Z,2.70
2019-04-05T15:43:39.910Z,2.93
2019-04-05T15:46:11.082Z,2.52
2019-04-05T15:48:42.166Z,2.87
2019-04-05T15:51:13.241Z,2.97
2019-04-05T15:53:44.358Z,2.70
2019-04-05T15:56:15.521Z,3.03
2019-04-05T15:58:46.963Z,3.47
2019-04-05T16:01:18.640Z,3.25
2019-04-05T16:03:49.722Z,2.95
2019-04-05T16:06:20.803Z,2.67
2019-04-05T16:08:52.155Z,3.22
2019-04-05T16:11:23.134Z,3.90
2019-04-05T16:13:55.192Z,3.18
2019-04-05T16:16:26.658Z,3.57
2019-04-05T16:18:58.690Z,2.87
2019-04-05T16:21:29.700Z,3.40
2019-04-05T16:24:00.692Z,2.40
2019-04-05T16:26:31.774Z,2.30
2019-04-05T16:29:02.845Z,3.12
2019-04-05T16:31:33.958Z,2.80
2019-04-05T16:34:05.310Z,2.67
2019-04-05T16:36:36.361Z,3.17
2019-04-05T16:39:13.794Z,3.27
2019-04-05T16:41:44.759Z,3.63
2019-04-05T16:44:15.879Z,2.33
2019-04-05T16:46:47.113Z,3.17
2019-04-05T16:49:18.432Z,3.40
2019-04-05T16:51:49.429Z,3.05
2019-04-05T16:54:20.544Z,3.53
2019-04-05T16:56:51.671Z,3.62
2019-04-05T16:59:25.478Z,3.17
2019-04-05T17:01:56.932Z,2.55
2019-04-05T17:04:28.021Z,3.03
2019-04-05T17:06:59.045Z,2.70
2019-04-05T17:09:30.329Z,2.42
2019-04-05T17:12:01.601Z,3.77
2019-04-05T17:14:32.693Z,3.13
2019-04-05T17:17:04.084Z,3.17
2019-04-05T17:19:35.130Z,2.17
2019-04-05T17:22:06.197Z,2.25
2019-04-05T17:24:37.342Z,3.60
2019-04-05T17:27:08.649Z,2.83
2019-04-05T17:29:39.702Z,3.50
2019-04-05T17:32:10.709Z,2.73
2019-04-05T17:34:42.664Z,2.92
2019-04-05T17:37:13.674Z,3.43
2019-04-05T17:39:44.890Z,2.90
2019-04-05T17:42:16.114Z,2.97
2019-04-05T17:44:47.094Z,4.00
2019-04-05T17:47:18.244Z,3.10
2019-04-05T17:49:49.229Z,3.27
2019-04-05T17:52:20.276Z,3.20
2019-04-05T17:54:51.330Z,3.22
2019-04-05T17:57:22.551Z,3.20
2019-04-05T17:59:53.841Z,2.80
2019-04-05T18:02:25.979Z,2.92
2019-04-05T18:04:57.016Z,2.67
2019-04-05T18:07:29.014Z,2.57
2019-04-05T18:10:00.099Z,3.22
2019-04-05T18:12:31.151Z,2.50
2019-04-05T18:15:02.213Z,5.12
2019-04-05T18:17:34.373Z,3.20
2019-04-05T18:20:06.229Z,2.98
2019-04-05T18:22:37.363Z,3.47
2019-04-05T18:25:08.632Z,4.37
2019-04-05T18:27:40.223Z,3.80
2019-04-05T18:30:11.516Z,4.08
2019-04-05T18:32:42.550Z,3.13
2019-04-05T18:35:13.708Z,4.27
2019-04-05T18:37:44.682Z,2.70
2019-04-05T18:40:16.017Z,4.10
2019-04-05T18:42:47.063Z,3.37
2019-04-05T18:45:18.127Z,2.77
2019-04-05T18:47:49.237Z,4.65
2019-04-05T18:50:20.666Z,3.70
2019-04-05T18:52:51.751Z,3.17
2019-04-05T18:55:22.790Z,2.37
2019-04-05T18:57:53.893Z,3.75
2019-04-05T19:00:25.552Z,3.60
2019-04-05T19:02:56.592Z,3.52
2019-04-05T19:05:27.649Z,2.63
2019-04-05T19:07:58.715Z,3.15
2019-04-05T19:10:37.047Z,3.27
2019-04-05T19:13:02.648Z,3.33
2019-04-05T19:15:33.724Z,3.30
2019-04-05T19:18:04.821Z,3.60
2019-04-05T19:20:36.981Z,3.47
2019-04-05T19:23:08.209Z,3.12
2019-04-05T19:25:39.276Z,4.33
2019-04-05T19:28:10.278Z,3.27
2019-04-05T19:48:35.536Z,3.50
2019-04-05T19:51:07.271Z,3.07
2019-04-05T19:53:38.262Z,3.77
2019-04-05T19:56:09.748Z,4.03
2019-04-05T19:58:40.744Z,3.87
2019-04-05T20:01:11.929Z,2.97
2019-04-05T20:03:42.887Z,3.60
2019-04-05T20:06:13.945Z,3.77
2019-04-05T20:08:45.029Z,3.00
2019-04-05T20:11:17.936Z,4.13
2019-04-05T20:13:48.950Z,2.62
2019-04-05T20:16:20.018Z,3.10
2019-04-05T20:18:51.089Z,6.28
2019-04-05T20:21:22.073Z,4.20
2019-04-05T20:23:53.116Z,5.65
2019-04-05T20:26:24.280Z,4.03
2019-04-05T20:28:56.205Z,3.30
2019-04-05T20:31:27.741Z,4.37
2019-04-05T20:33:58.839Z,2.92
2019-04-05T20:36:29.847Z,3.98
2019-04-05T20:39:00.929Z,3.50
2019-04-05T20:41:33.690Z,2.72
2019-04-05T20:44:04.761Z,4.12
2019-04-05T20:46:35.755Z,3.02
2019-04-05T20:49:06.963Z,3.25
2019-04-05T20:51:37.981Z,3.98
2019-04-05T20:54:09.233Z,3.27
2019-04-05T20:56:40.335Z,3.73
2019-04-05T20:59:11.501Z,3.45
2019-04-05T21:01:42.601Z,3.50
2019-04-05T21:04:13.895Z,3.22
2019-04-05T21:06:45.253Z,3.37
2019-04-05T21:09:16.327Z,4.03
2019-04-05T21:11:47.509Z,3.27
2019-04-05T21:14:19.276Z,3.33
2019-04-05T21:16:50.316Z,3.08
2019-04-05T21:19:21.465Z,3.47
2019-04-05T21:21:52.550Z,2.60
2019-04-05T21:24:23.896Z,2.97
2019-04-05T21:26:56.014Z,2.56
2019-04-05T21:29:27.169Z,3.50
2019-04-05T21:31:58.480Z,3.00
2019-04-05T21:34:29.565Z,3.43
2019-04-05T21:37:00.865Z,2.80
2019-04-05T21:39:31.879Z,3.47
2019-04-05T21:42:03.124Z,3.07
2019-04-05T21:44:34.149Z,3.47
2019-04-05T21:47:05.156Z,3.47
2019-04-05T21:49:36.148Z,2.80
2019-04-05T21:52:07.261Z,2.73
2019-04-05T21:54:47.166Z,2.70
2019-04-05T21:57:11.090Z,3.40
2019-04-05T21:59:42.595Z,2.20
2019-04-05T22:02:13.757Z,3.05
2019-04-05T22:04:44.838Z,2.77
2019-04-05T22:07:16.127Z,3.90
2019-04-05T22:09:47.371Z,3.50
2019-04-05T22:12:18.400Z,2.50
2019-04-05T22:14:49.416Z,3.35
2019-04-05T22:17:20.428Z,3.40
2019-04-05T22:19:51.444Z,3.05
2019-04-05T22:22:22.824Z,2.70
2019-04-05T22:24:59.339Z,3.00
2019-04-05T22:27:26.648Z,3.23
2019-04-05T22:29:57.662Z,2.67
2019-04-05T22:32:28.728Z,3.37
2019-04-05T22:34:59.728Z,3.10
2019-04-05T22:37:30.796Z,3.47
2019-04-05T22:40:01.797Z,5.85
2019-04-05T22:42:32.861Z,5.47
2019-04-05T22:45:04.042Z,4.35
2019-04-05T22:47:36.048Z,3.10
2019-04-05T22:50:07.399Z,3.53
2019-04-05T22:52:38.411Z,3.07
2019-04-05T22:55:11.503Z,3.00
2019-04-05T22:57:42.546Z,2.63
2019-04-05T23:00:14.590Z,2.80
2019-04-05T23:02:47.199Z,2.55
2019-04-05T23:05:18.250Z,2.57
2019-04-05T23:07:49.268Z,2.75
2019-04-05T23:10:20.312Z,2.57
2019-04-05T23:12:51.532Z,3.00
2019-04-05T23:15:22.594Z,3.07
2019-04-05T23:17:53.623Z,3.37
2019-04-05T23:20:24.675Z,2.67
2019-04-05T23:22:56.306Z,2.87
2019-04-05T23:25:27.331Z,3.17
2019-04-05T23:27:58.406Z,2.87
2019-04-05T23:30:30.637Z,2.43
2019-04-05T23:33:01.715Z,3.17
2019-04-05T23:35:32.763Z,2.47
2019-04-05T23:38:03.963Z,2.72
2019-04-05T23:40:35.128Z,1.80
2019-04-05T23:43:06.275Z,2.33
2019-04-05T23:45:38.304Z,2.53
2019-04-05T23:48:09.333Z,1.93
2019-04-05T23:50:40.344Z,1.97
2019-04-05T23:53:11.927Z,2.03
2019-04-05T23:55:43.980Z,2.93
2019-04-05T23:58:14.938Z,2.63
